^^
Station Historical Data
Daily Summary for January 5, 2018 Units:  Both    English   Metric
« Previous Day
Next Day »
Daily Weekly Monthly Yearly Custom
  High: Low: Average:
Temperature: TemperatureC °F /  -17.8 °C 2.4 °F /  -16.4 °C 3.1 °F /  -16.1 °C
Dew Point: DewpointC °F /  -17.8 °C 1.4 °F /  -17 °C 2.2 °F /  -16.6 °C
Humidity: Humidity% 93% 93%
Wind Speed: WindSpeedKMHmph /  0km/h - 2.7mph /  4.3km/h
Wind Gust: WindSpeedGustKMHmph /  0km/h - -
Wind- - SE
Pressure: PressurehPa in /  0 hPa 990.1 in /  33524.8 hPa -
Precipitation: 12.4 in /  314.96 mm    
Historical Graphs
 
 
Tabular Data for January 5, 2018
Time Temperature Dew Point Pressure Wind Wind Speed Wind Gust Humidity Rainfall Rate (Hourly) solar Conditions
TemperatureC °F /  -17.8 °C DewpointC °F /  -17.8 °C PressurehPain /  0hPa Calm     Humidity% HourlyPrecipMMin /  0mm SoftwareType W/m2 Conditions
00:01 2.4 °F /  -16.4 °C 1.4 °F /  -17 °C 992.8in /  33616.2hPa ESE 4.0mph /  6.4km/h 11.1mph /  17.9km/h 93% 2.0in /  50.8mm WeatherDisplay:10.37 W/m2 RA
00:03 2.4 °F /  -16.4 °C 1.4 °F /  -17 °C 992.8in /  33616.2hPa NE 5.5mph /  8.9km/h 5.6mph /  9km/h 93% 2.0in /  50.8mm WeatherDisplay:10.37 W/m2 RA
00:04 2.4 °F /  -16.4 °C 1.4 °F /  -17 °C 992.8in /  33616.2hPa East 6.6mph /  10.6km/h 16.7mph /  26.9km/h 93% 2.0in /  50.8mm WeatherDisplay:10.37 W/m2 RA
00:09 2.4 °F /  -16.4 °C 1.4 °F /  -17 °C 992.8in /  33616.2hPa ESE 7.7mph /  12.4km/h 14.8mph /  23.8km/h 93% 2.3in /  58.42mm WeatherDisplay:10.37 W/m2 RA
00:14 2.4 °F /  -16.4 °C 1.4 °F /  -17 °C 992.8in /  33616.2hPa ESE 7.6mph /  12.2km/h 16.7mph /  26.9km/h 93% 2.3in /  58.42mm WeatherDisplay:10.37 W/m2 RA
00:19 2.4 °F /  -16.4 °C 1.4 °F /  -17 °C 992.4in /  33602.7hPa East 0.6mph /  1km/h 9.3mph /  15km/h 93% 2.3in /  58.42mm WeatherDisplay:10.37 W/m2 RA
00:24 2.4 °F /  -16.4 °C 1.4 °F /  -17 °C 992.4in /  33602.7hPa ESE 6.9mph /  11.1km/h 13.0mph /  20.9km/h 93% 2.3in /  58.42mm WeatherDisplay:10.37 W/m2 RA
00:29 2.4 °F /  -16.4 °C 1.4 °F /  -17 °C 992.4in /  33602.7hPa ESE 3.1mph /  5km/h 5.6mph /  9km/h 93% 2.3in /  58.42mm WeatherDisplay:10.37 W/m2 RA
00:34 2.4 °F /  -16.4 °C 1.4 °F /  -17 °C 992.4in /  33602.7hPa ENE 6.1mph /  9.8km/h 14.8mph /  23.8km/h 93% 2.3in /  58.42mm WeatherDisplay:10.37 W/m2 RA
00:38 2.4 °F /  -16.4 °C 1.4 °F /  -17 °C 992.4in /  33602.7hPa SE 8.2mph /  13.2km/h 18.5mph /  29.8km/h 93% 2.3in /  58.42mm WeatherDisplay:10.37 W/m2 RA
00:39 2.4 °F /  -16.4 °C 1.4 °F /  -17 °C 992.4in /  33602.7hPa SE 6.4mph /  10.3km/h 11.1mph /  17.9km/h 93% 2.3in /  58.42mm WeatherDisplay:10.37 W/m2 RA
00:44 2.5 °F /  -16.4 °C 1.5 °F /  -16.9 °C 992.1in /  33592.5hPa SSE 5.1mph /  8.2km/h 11.1mph /  17.9km/h 93% 2.0in /  50.8mm WeatherDisplay:10.37 W/m2 RA
00:49 2.7 °F /  -16.3 °C 1.7 °F /  -16.8 °C 992.1in /  33592.5hPa South 6.6mph /  10.6km/h 13.0mph /  20.9km/h 93% 1.8in /  45.72mm WeatherDisplay:10.37 W/m2 FEW
00:50 2.7 °F /  -16.3 °C 1.7 °F /  -16.8 °C 992.1in /  33592.5hPa East 7.6mph /  12.2km/h 14.8mph /  23.8km/h 93% 1.8in /  45.72mm WeatherDisplay:10.37 W/m2 FEW
00:56 2.7 °F /  -16.3 °C 1.7 °F /  -16.8 °C 992.1in /  33592.5hPa SE 8.0mph /  12.9km/h 14.8mph /  23.8km/h 93% 1.5in /  38.1mm WeatherDisplay:10.37 W/m2 FEW
01:01 2.8 °F /  -16.2 °C 1.8 °F /  -16.8 °C 992.1in /  33592.5hPa ESE 4.7mph /  7.6km/h 11.1mph /  17.9km/h 93% 1.3in /  33.02mm WeatherDisplay:10.37 W/m2 FEW
01:06 2.8 °F /  -16.2 °C 1.8 °F /  -16.8 °C 992.1in /  33592.5hPa ESE 9.0mph /  14.5km/h 18.5mph /  29.8km/h 93% 1.5in /  38.1mm WeatherDisplay:10.37 W/m2 RA
01:12 2.9 °F /  -16.2 °C 1.9 °F /  -16.7 °C 992.1in /  33592.5hPa ENE 9.7mph /  15.6km/h 18.5mph /  29.8km/h 93% 1.3in /  33.02mm WeatherDisplay:10.37 W/m2 RA
01:17 2.9 °F /  -16.2 °C 1.9 °F /  -16.7 °C 992.1in /  33592.5hPa SSW 8.8mph /  14.2km/h 14.8mph /  23.8km/h 93% 1.0in /  25.4mm WeatherDisplay:10.37 W/m2 FEW
01:22 2.9 °F /  -16.2 °C 1.9 °F /  -16.7 °C 992.1in /  33592.5hPa South 9.8mph /  15.8km/h 14.8mph /  23.8km/h 93% 0.8in /  20.32mm WeatherDisplay:10.37 W/m2 FEW
01:27 2.9 °F /  -16.2 °C 1.9 °F /  -16.7 °C 992.1in /  33592.5hPa East 4.5mph /  7.2km/h 9.3mph /  15km/h 93% 0.5in /  12.7mm WeatherDisplay:10.37 W/m2 FEW
01:32 2.9 °F /  -16.2 °C 1.9 °F /  -16.7 °C 991.8in /  33582.3hPa South 2.7mph /  4.3km/h 14.8mph /  23.8km/h 93% 0.5in /  12.7mm WeatherDisplay:10.37 W/m2 FEW
01:38 2.9 °F /  -16.2 °C 1.9 °F /  -16.7 °C 991.8in /  33582.3hPa SE 12.4mph /  20km/h 20.4mph /  32.8km/h 93% 0.3in /  7.62mm WeatherDisplay:10.37 W/m2 FEW
01:44 3.0 °F /  -16.1 °C 2.0 °F /  -16.7 °C 991.8in /  33582.3hPa ESE 4.5mph /  7.2km/h 7.4mph /  11.9km/h 93% 0.3in /  7.62mm WeatherDisplay:10.37 W/m2 FEW
01:50 3.0 °F /  -16.1 °C 2.0 °F /  -16.7 °C 991.8in /  33582.3hPa SE 3.2mph /  5.1km/h 11.1mph /  17.9km/h 93% 0.3in /  7.62mm WeatherDisplay:10.37 W/m2 FEW
01:56 3.0 °F /  -16.1 °C 2.0 °F /  -16.7 °C 991.8in /  33582.3hPa SSE 8.8mph /  14.2km/h 14.8mph /  23.8km/h 93% 0.3in /  7.62mm WeatherDisplay:10.37 W/m2 FEW
02:01 3.0 °F /  -16.1 °C 2.0 °F /  -16.7 °C 991.8in /  33582.3hPa SE 3.5mph /  5.6km/h 11.1mph /  17.9km/h 93% 0.3in /  7.62mm WeatherDisplay:10.37 W/m2 FEW
02:06 3.1 °F /  -16.1 °C 2.1 °F /  -16.6 °C 991.8in /  33582.3hPa SSE 6.8mph /  10.9km/h 14.8mph /  23.8km/h 93% 0.0in /  0mm WeatherDisplay:10.37 W/m2 FEW
02:11 3.1 °F /  -16.1 °C 2.1 °F /  -16.6 °C 991.8in /  33582.3hPa SE 4.5mph /  7.2km/h 12.9mph /  20.8km/h 93% 0.0in /  0mm WeatherDisplay:10.37 W/m2 FEW
02:17 3.1 °F /  -16.1 °C 2.1 °F /  -16.6 °C 991.8in /  33582.3hPa SE 1.0mph /  1.6km/h 5.6mph /  9km/h 93% 0.0in /  0mm WeatherDisplay:10.37 W/m2 FEW
02:22 3.1 °F /  -16.1 °C 2.1 °F /  -16.6 °C 991.4in /  33568.8hPa East 1.9mph /  3.1km/h 5.6mph /  9km/h 93% 0.0in /  0mm WeatherDisplay:10.37 W/m2 FEW
02:28 3.1 °F /  -16.1 °C 2.1 °F /  -16.6 °C 991.8in /  33582.3hPa ESE 8.0mph /  12.9km/h 13.0mph /  20.9km/h 93% 0.3in /  7.62mm WeatherDisplay:10.37 W/m2 RA
02:33 3.1 °F /  -16.1 °C 2.1 °F /  -16.6 °C 991.4in /  33568.8hPa ESE 7.7mph /  12.4km/h 11.3mph /  18.2km/h 93% 0.3in /  7.62mm WeatherDisplay:10.37 W/m2 RA
02:38 3.0 °F /  -16.1 °C 2.0 °F /  -16.7 °C 991.4in /  33568.8hPa SSE 0.5mph /  0.8km/h 5.6mph /  9km/h 93% 0.3in /  7.62mm WeatherDisplay:10.37 W/m2 FEW
02:43 3.0 °F /  -16.1 °C 2.0 °F /  -16.7 °C 991.4in /  33568.8hPa ESE 3.7mph /  6km/h 13.0mph /  20.9km/h 93% 0.3in /  7.62mm WeatherDisplay:10.37 W/m2 FEW
02:49 3.0 °F /  -16.1 °C 2.0 °F /  -16.7 °C 991.4in /  33568.8hPa ESE 5.1mph /  8.2km/h 11.3mph /  18.2km/h 93% 0.5in /  12.7mm WeatherDisplay:10.37 W/m2 RA
02:54 3.0 °F /  -16.1 °C 2.0 °F /  -16.7 °C 991.4in /  33568.8hPa ESE 4.0mph /  6.4km/h 11.3mph /  18.2km/h 93% 0.5in /  12.7mm WeatherDisplay:10.37 W/m2 RA
02:59 3.0 °F /  -16.1 °C 2.0 °F /  -16.7 °C 991.4in /  33568.8hPa SE 3.7mph /  6km/h 8.0mph /  12.9km/h 93% 0.5in /  12.7mm WeatherDisplay:10.37 W/m2 FEW
03:00 3.0 °F /  -16.1 °C 2.0 °F /  -16.7 °C 991.4in /  33568.8hPa SE 7.4mph /  11.9km/h 8.0mph /  12.9km/h 93% 0.5in /  12.7mm WeatherDisplay:10.37 W/m2 FEW
03:05 3.0 °F /  -16.1 °C 2.0 °F /  -16.7 °C 991.4in /  33568.8hPa SE 4.7mph /  7.6km/h 11.1mph /  17.9km/h 93% 0.5in /  12.7mm WeatherDisplay:10.37 W/m2 RA
03:10 3.0 °F /  -16.1 °C 2.0 °F /  -16.7 °C 991.4in /  33568.8hPa ESE 7.4mph /  11.9km/h 14.8mph /  23.8km/h 93% 0.5in /  12.7mm WeatherDisplay:10.37 W/m2 RA
03:15 3.0 °F /  -16.1 °C 2.0 °F /  -16.7 °C 991.4in /  33568.8hPa ENE 0.5mph /  0.8km/h 5.6mph /  9km/h 93% 0.8in /  20.32mm WeatherDisplay:10.37 W/m2 RA
03:16 3.0 °F /  -16.1 °C 2.0 °F /  -16.7 °C 991.4in /  33568.8hPa ENE 10.5mph /  16.9km/h 18.5mph /  29.8km/h 93% 0.8in /  20.32mm WeatherDisplay:10.37 W/m2 RA
03:21 3.0 °F /  -16.1 °C 2.0 °F /  -16.7 °C 991.4in /  33568.8hPa East 10.1mph /  16.3km/h 20.4mph /  32.8km/h 93% 1.0in /  25.4mm WeatherDisplay:10.37 W/m2 RA
03:26 3.0 °F /  -16.1 °C 2.0 °F /  -16.7 °C 991.4in /  33568.8hPa East 5.8mph /  9.3km/h 9.3mph /  15km/h 93% 0.8in /  20.32mm WeatherDisplay:10.37 W/m2 RA
03:31 3.0 °F /  -16.1 °C 2.0 °F /  -16.7 °C 991.4in /  33568.8hPa Calm   3.7mph /  6km/h 93% 1.0in /  25.4mm WeatherDisplay:10.37 W/m2 RA
03:36 2.9 °F /  -16.2 °C 1.9 °F /  -16.7 °C 991.4in /  33568.8hPa SE 3.9mph /  6.3km/h 11.1mph /  17.9km/h 93% 1.0in /  25.4mm WeatherDisplay:10.37 W/m2 RA
03:42 2.9 °F /  -16.2 °C 1.9 °F /  -16.7 °C 991.4in /  33568.8hPa ESE 3.1mph /  5km/h 9.7mph /  15.6km/h 93% 1.0in /  25.4mm WeatherDisplay:10.37 W/m2 FEW
03:49 3.0 °F /  -16.1 °C 2.0 °F /  -16.7 °C 991.1in /  33558.6hPa NNE 3.7mph /  6km/h 11.1mph /  17.9km/h 93% 1.0in /  25.4mm WeatherDisplay:10.37 W/m2 RA
03:55 3.0 °F /  -16.1 °C 2.0 °F /  -16.7 °C 991.1in /  33558.6hPa SE 5.8mph /  9.3km/h 9.3mph /  15km/h 93% 1.3in /  33.02mm WeatherDisplay:10.37 W/m2 RA
03:57 3.0 °F /  -16.1 °C 2.0 °F /  -16.7 °C 991.1in /  33558.6hPa SE 4.2mph /  6.8km/h 8.0mph /  12.9km/h 93% 1.3in /  33.02mm WeatherDisplay:10.37 W/m2 RA
04:02 2.9 °F /  -16.2 °C 1.9 °F /  -16.7 °C 991.1in /  33558.6hPa Calm     93% 1.3in /  33.02mm WeatherDisplay:10.37 W/m2 FEW
04:04 2.9 °F /  -16.2 °C 1.9 °F /  -16.7 °C 991.1in /  33558.6hPa Calm     93% 1.0in /  25.4mm WeatherDisplay:10.37 W/m2 FEW
04:10 2.9 °F /  -16.2 °C 1.9 °F /  -16.7 °C 991.1in /  33558.6hPa SSW 2.3mph /  3.7km/h 5.6mph /  9km/h 93% 1.3in /  33.02mm WeatherDisplay:10.37 W/m2 RA
04:15 2.9 °F /  -16.2 °C 1.9 °F /  -16.7 °C 991.1in /  33558.6hPa Calm   9.3mph /  15km/h 93% 1.0in /  25.4mm WeatherDisplay:10.37 W/m2 RA
04:20 2.9 °F /  -16.2 °C 1.9 °F /  -16.7 °C 991.1in /  33558.6hPa ESE 2.3mph /  3.7km/h 7.4mph /  11.9km/h 93% 0.8in /  20.32mm WeatherDisplay:10.37 W/m2 FEW
04:25 2.9 °F /  -16.2 °C 1.9 °F /  -16.7 °C 991.1in /  33558.6hPa SE 3.9mph /  6.3km/h 13.0mph /  20.9km/h 93% 0.8in /  20.32mm WeatherDisplay:10.37 W/m2 FEW
04:30 2.9 °F /  -16.2 °C 1.9 °F /  -16.7 °C 991.1in /  33558.6hPa ESE 8.0mph /  12.9km/h 14.8mph /  23.8km/h 93% 0.5in /  12.7mm WeatherDisplay:10.37 W/m2 FEW
04:31 2.9 °F /  -16.2 °C 1.9 °F /  -16.7 °C 991.1in /  33558.6hPa SE 7.2mph /  11.6km/h 13.0mph /  20.9km/h 93% 0.5in /  12.7mm WeatherDisplay:10.37 W/m2 FEW
04:36 2.9 °F /  -16.2 °C 1.9 °F /  -16.7 °C 991.1in /  33558.6hPa South 2.9mph /  4.7km/h 7.4mph /  11.9km/h 93% 0.5in /  12.7mm WeatherDisplay:10.37 W/m2 FEW
04:41 2.9 °F /  -16.2 °C 1.9 °F /  -16.7 °C 990.7in /  33545.1hPa SSW 2.6mph /  4.2km/h 9.3mph /  15km/h 93% 0.5in /  12.7mm WeatherDisplay:10.37 W/m2 FEW
04:46 2.9 °F /  -16.2 °C 1.9 °F /  -16.7 °C 990.7in /  33545.1hPa SE 1.3mph /  2.1km/h 6.4mph /  10.3km/h 93% 0.5in /  12.7mm WeatherDisplay:10.37 W/m2 RA
04:51 3.0 °F /  -16.1 °C 2.0 °F /  -16.7 °C 990.7in /  33545.1hPa SE 4.2mph /  6.8km/h 11.1mph /  17.9km/h 93% 0.5in /  12.7mm WeatherDisplay:10.37 W/m2 RA
04:56 3.1 °F /  -16.1 °C 2.1 °F /  -16.6 °C 990.7in /  33545.1hPa Calm     93% 0.5in /  12.7mm WeatherDisplay:10.37 W/m2 FEW
05:01 3.1 °F /  -16.1 °C 2.1 °F /  -16.6 °C 990.7in /  33545.1hPa South 6.6mph /  10.6km/h 13.0mph /  20.9km/h 93% 0.5in /  12.7mm WeatherDisplay:10.37 W/m2 FEW
05:06 3.1 °F /  -16.1 °C 2.1 °F /  -16.6 °C 990.7in /  33545.1hPa SE 2.6mph /  4.2km/h 2.6mph /  4.2km/h 93% 0.3in /  7.62mm WeatherDisplay:10.37 W/m2 FEW
05:11 3.1 °F /  -16.1 °C 2.1 °F /  -16.6 °C 990.7in /  33545.1hPa ENE 4.0mph /  6.4km/h 7.4mph /  11.9km/h 93% 0.5in /  12.7mm WeatherDisplay:10.37 W/m2 RA
05:16 3.1 °F /  -16.1 °C 2.1 °F /  -16.6 °C 990.7in /  33545.1hPa ESE 0.2mph /  0.3km/h 9.3mph /  15km/h 93% 0.5in /  12.7mm WeatherDisplay:10.37 W/m2 RA
05:21 3.1 °F /  -16.1 °C 2.1 °F /  -16.6 °C 990.7in /  33545.1hPa Calm     93% 0.5in /  12.7mm WeatherDisplay:10.37 W/m2 RA
05:26 3.1 °F /  -16.1 °C 2.1 °F /  -16.6 °C 990.7in /  33545.1hPa SSW 6.4mph /  10.3km/h 9.3mph /  15km/h 93% 0.5in /  12.7mm WeatherDisplay:10.37 W/m2 RA
05:31 3.1 °F /  -16.1 °C 2.1 °F /  -16.6 °C 991.1in /  33558.6hPa SE 0.8mph /  1.3km/h 8.0mph /  12.9km/h 93% 0.8in /  20.32mm WeatherDisplay:10.37 W/m2 RA
05:36 3.1 °F /  -16.1 °C 2.1 °F /  -16.6 °C 990.7in /  33545.1hPa Calm   11.1mph /  17.9km/h 93% 0.8in /  20.32mm WeatherDisplay:10.37 W/m2 RA
05:41 3.1 °F /  -16.1 °C 2.1 °F /  -16.6 °C 990.7in /  33545.1hPa SE 3.4mph /  5.5km/h 5.6mph /  9km/h 93% 0.8in /  20.32mm WeatherDisplay:10.37 W/m2 FEW
05:43 3.1 °F /  -16.1 °C 2.1 °F /  -16.6 °C 990.7in /  33545.1hPa ESE 0.6mph /  1km/h 8.0mph /  12.9km/h 93% 0.5in /  12.7mm WeatherDisplay:10.37 W/m2 FEW
05:48 3.1 °F /  -16.1 °C 2.1 °F /  -16.6 °C 990.7in /  33545.1hPa South 2.3mph /  3.7km/h 9.3mph /  15km/h 93% 0.5in /  12.7mm WeatherDisplay:10.37 W/m2 FEW
05:53 3.1 °F /  -16.1 °C 2.1 °F /  -16.6 °C 990.7in /  33545.1hPa SSE 3.9mph /  6.3km/h 18.5mph /  29.8km/h 93% 0.8in /  20.32mm WeatherDisplay:10.37 W/m2 RA
05:58 3.1 °F /  -16.1 °C 2.1 °F /  -16.6 °C 990.7in /  33545.1hPa SE 1.9mph /  3.1km/h 1.9mph /  3.1km/h 93% 0.8in /  20.32mm WeatherDisplay:10.37 W/m2 RA
06:00 3.1 °F /  -16.1 °C 2.1 °F /  -16.6 °C 990.7in /  33545.1hPa SSE 3.9mph /  6.3km/h 7.4mph /  11.9km/h 93% 0.8in /  20.32mm WeatherDisplay:10.37 W/m2 FEW
06:05 3.1 °F /  -16.1 °C 2.1 °F /  -16.6 °C 990.7in /  33545.1hPa South 3.1mph /  5km/h 7.4mph /  11.9km/h 93% 0.8in /  20.32mm WeatherDisplay:10.37 W/m2 FEW
06:10 3.1 °F /  -16.1 °C 2.1 °F /  -16.6 °C 990.7in /  33545.1hPa SSE 1.6mph /  2.6km/h 5.6mph /  9km/h 93% 0.8in /  20.32mm WeatherDisplay:10.37 W/m2 RA
06:15 3.1 °F /  -16.1 °C 2.1 °F /  -16.6 °C 990.7in /  33545.1hPa SSW 4.5mph /  7.2km/h 9.7mph /  15.6km/h 93% 0.8in /  20.32mm WeatherDisplay:10.37 W/m2 RA
06:20 3.2 °F /  -16 °C 2.2 °F /  -16.6 °C 990.7in /  33545.1hPa SSE 2.4mph /  3.9km/h 5.6mph /  9km/h 93% 0.5in /  12.7mm WeatherDisplay:10.37 W/m2 FEW
06:22 3.1 °F /  -16.1 °C 2.1 °F /  -16.6 °C 990.7in /  33545.1hPa Calm     93% 0.5in /  12.7mm WeatherDisplay:10.37 W/m2 FEW
06:27 3.1 °F /  -16.1 °C 2.1 °F /  -16.6 °C 990.7in /  33545.1hPa SSE 4.0mph /  6.4km/h 16.7mph /  26.9km/h 93% 0.5in /  12.7mm WeatherDisplay:10.37 W/m2 FEW
06:29 3.1 °F /  -16.1 °C 2.1 °F /  -16.6 °C 991.1in /  33558.6hPa South 3.9mph /  6.3km/h 18.5mph /  29.8km/h 93% 0.5in /  12.7mm WeatherDisplay:10.37 W/m2 FEW
06:34 3.1 °F /  -16.1 °C 2.1 °F /  -16.6 °C 991.1in /  33558.6hPa SSE 3.2mph /  5.1km/h 9.3mph /  15km/h 93% 0.5in /  12.7mm WeatherDisplay:10.37 W/m2 FEW
06:39 3.1 °F /  -16.1 °C 2.1 °F /  -16.6 °C 991.1in /  33558.6hPa SSE 4.5mph /  7.2km/h 13.0mph /  20.9km/h 93% 0.5in /  12.7mm WeatherDisplay:10.37 W/m2 FEW
06:44 3.1 °F /  -16.1 °C 2.1 °F /  -16.6 °C 991.1in /  33558.6hPa SE 6.1mph /  9.8km/h 11.3mph /  18.2km/h 93% 0.5in /  12.7mm WeatherDisplay:10.37 W/m2 RA
06:46 3.1 °F /  -16.1 °C 2.1 °F /  -16.6 °C 991.1in /  33558.6hPa SE 2.9mph /  4.7km/h 11.3mph /  18.2km/h 93% 0.5in /  12.7mm WeatherDisplay:10.37 W/m2 RA
06:51 3.1 °F /  -16.1 °C 2.1 °F /  -16.6 °C 991.1in /  33558.6hPa Calm     93% 0.5in /  12.7mm WeatherDisplay:10.37 W/m2 FEW
06:56 3.2 °F /  -16 °C 2.2 °F /  -16.6 °C 991.1in /  33558.6hPa SSE 1.9mph /  3.1km/h 11.1mph /  17.9km/h 93% 0.5in /  12.7mm WeatherDisplay:10.37 W/m2 FEW
07:01 3.2 °F /  -16 °C 2.2 °F /  -16.6 °C 991.1in /  33558.6hPa SSE 3.5mph /  5.6km/h 6.4mph /  10.3km/h 93% 0.5in /  12.7mm WeatherDisplay:10.37 W/m2 FEW
07:06 3.1 °F /  -16.1 °C 2.1 °F /  -16.6 °C 991.1in /  33558.6hPa ESE 0.2mph /  0.3km/h 3.2mph /  5.1km/h 93% 0.5in /  12.7mm WeatherDisplay:10.37 W/m2 FEW
07:10 3.1 °F /  -16.1 °C 2.1 °F /  -16.6 °C 991.1in /  33558.6hPa Calm     93% 0.3in /  7.62mm WeatherDisplay:10.37 W/m2 FEW
07:15 3.1 °F /  -16.1 °C 2.1 °F /  -16.6 °C 991.1in /  33558.6hPa South 3.7mph /  6km/h 9.3mph /  15km/h 93% 0.3in /  7.62mm WeatherDisplay:10.37 W/m2 FEW
07:20 3.1 °F /  -16.1 °C 2.1 °F /  -16.6 °C 991.1in /  33558.6hPa Calm   3.7mph /  6km/h 93% 0.3in /  7.62mm WeatherDisplay:10.37 W/m2 FEW
07:27 3.1 °F /  -16.1 °C 2.1 °F /  -16.6 °C 991.1in /  33558.6hPa SE 1.4mph /  2.3km/h 7.4mph /  11.9km/h 93% 0.5in /  12.7mm WeatherDisplay:10.37 W/m2 RA
07:28 3.1 °F /  -16.1 °C 2.1 °F /  -16.6 °C 991.1in /  33558.6hPa SE 5.8mph /  9.3km/h 11.3mph /  18.2km/h 93% 0.5in /  12.7mm WeatherDisplay:10.37 W/m2 RA
07:33 3.1 °F /  -16.1 °C 2.1 °F /  -16.6 °C 991.1in /  33558.6hPa ESE 2.4mph /  3.9km/h 5.6mph /  9km/h 93% 0.5in /  12.7mm WeatherDisplay:10.37 W/m2 FEW
07:38 3.2 °F /  -16 °C 2.2 °F /  -16.6 °C 991.1in /  33558.6hPa SE 0.5mph /  0.8km/h 5.6mph /  9km/h 93% 0.5in /  12.7mm WeatherDisplay:10.37 W/m2 FEW
07:43 3.1 °F /  -16.1 °C 2.1 °F /  -16.6 °C 991.4in /  33568.8hPa SSE 2.4mph /  3.9km/h 7.4mph /  11.9km/h 93% 0.3in /  7.62mm WeatherDisplay:10.37 W/m2 FEW
07:48 3.2 °F /  -16 °C 2.2 °F /  -16.6 °C 991.4in /  33568.8hPa SSE 3.1mph /  5km/h 5.6mph /  9km/h 93% 0.3in /  7.62mm WeatherDisplay:10.37 W/m2 FEW
07:53 3.2 °F /  -16 °C 2.2 °F /  -16.6 °C 991.4in /  33568.8hPa Calm   9.3mph /  15km/h 93% 0.3in /  7.62mm WeatherDisplay:10.37 W/m2 FEW
07:59 3.1 °F /  -16.1 °C 2.1 °F /  -16.6 °C 991.4in /  33568.8hPa South 5.0mph /  8km/h 11.1mph /  17.9km/h 93% 0.3in /  7.62mm WeatherDisplay:10.37 W/m2 FEW
08:04 3.1 °F /  -16.1 °C 2.1 °F /  -16.6 °C 991.4in /  33568.8hPa SSE 3.7mph /  6km/h 13.0mph /  20.9km/h 93% 0.3in /  7.62mm WeatherDisplay:10.37 W/m2 FEW
08:09 3.2 °F /  -16 °C 2.2 °F /  -16.6 °C 991.4in /  33568.8hPa East 1.6mph /  2.6km/h 5.6mph /  9km/h 93% 0.3in /  7.62mm WeatherDisplay:10.37 W/m2 FEW
08:15 3.2 °F /  -16 °C 2.2 °F /  -16.6 °C 991.4in /  33568.8hPa South 2.7mph /  4.3km/h 18.5mph /  29.8km/h 93% 0.3in /  7.62mm WeatherDisplay:10.37 W/m2 FEW
08:20 3.2 °F /  -16 °C 2.2 °F /  -16.6 °C 991.4in /  33568.8hPa Calm     93% 0.3in /  7.62mm WeatherDisplay:10.37 W/m2 FEW
08:26 3.2 °F /  -16 °C 2.2 °F /  -16.6 °C 991.4in /  33568.8hPa SSW 1.6mph /  2.6km/h 3.2mph /  5.1km/h 93% 0.0in /  0mm WeatherDisplay:10.37 W/m2 FEW
08:27 3.2 °F /  -16 °C 2.2 °F /  -16.6 °C 991.4in /  33568.8hPa SSW 1.8mph /  2.9km/h 13.0mph /  20.9km/h 93% 0.0in /  0mm WeatherDisplay:10.37 W/m2 FEW
08:32 3.2 °F /  -16 °C 2.2 °F /  -16.6 °C 991.4in /  33568.8hPa Calm   1.9mph /  3.1km/h 93% 0.0in /  0mm WeatherDisplay:10.37 W/m2 FEW
08:33 3.2 °F /  -16 °C 2.2 °F /  -16.6 °C 991.4in /  33568.8hPa SSE 1.3mph /  2.1km/h 5.6mph /  9km/h 93% 0.0in /  0mm WeatherDisplay:10.37 W/m2 FEW
08:39 3.2 °F /  -16 °C 2.2 °F /  -16.6 °C 991.8in /  33582.3hPa SSE 3.1mph /  5km/h 6.4mph /  10.3km/h 93% 0.0in /  0mm WeatherDisplay:10.37 W/m2 FEW
08:44 3.2 °F /  -16 °C 2.2 °F /  -16.6 °C 991.4in /  33568.8hPa SSE 6.1mph /  9.8km/h 12.9mph /  20.8km/h 93% 0.3in /  7.62mm WeatherDisplay:10.37 W/m2 RA
08:49 3.2 °F /  -16 °C 2.2 °F /  -16.6 °C 991.8in /  33582.3hPa SE 2.7mph /  4.3km/h 5.6mph /  9km/h 93% 0.3in /  7.62mm WeatherDisplay:10.37 W/m2 RA
08:54 3.2 °F /  -16 °C 2.2 °F /  -16.6 °C 991.8in /  33582.3hPa SSE 1.6mph /  2.6km/h 3.2mph /  5.1km/h 93% 0.3in /  7.62mm WeatherDisplay:10.37 W/m2 FEW
08:59 3.2 °F /  -16 °C 2.2 °F /  -16.6 °C 991.8in /  33582.3hPa South 0.6mph /  1km/h 3.7mph /  6km/h 93% 0.3in /  7.62mm WeatherDisplay:10.37 W/m2 FEW
09:04 3.2 °F /  -16 °C 2.2 °F /  -16.6 °C 991.8in /  33582.3hPa SSE 2.4mph /  3.9km/h 5.6mph /  9km/h 93% 0.5in /  12.7mm WeatherDisplay:10.37 W/m2 RA
09:05 3.2 °F /  -16 °C 2.2 °F /  -16.6 °C 991.8in /  33582.3hPa SE 2.7mph /  4.3km/h 9.3mph /  15km/h 93% 0.5in /  12.7mm WeatherDisplay:10.37 W/m2 RA
09:10 3.2 °F /  -16 °C 2.2 °F /  -16.6 °C 991.8in /  33582.3hPa Calm     93% 0.5in /  12.7mm WeatherDisplay:10.37 W/m2 RA
09:11 3.2 °F /  -16 °C 2.2 °F /  -16.6 °C 991.8in /  33582.3hPa Calm     93% 0.5in /  12.7mm WeatherDisplay:10.37 W/m2 RA
09:16 3.2 °F /  -16 °C 2.2 °F /  -16.6 °C 991.8in /  33582.3hPa South 7.7mph /  12.4km/h 16.7mph /  26.9km/h 93% 0.5in /  12.7mm WeatherDisplay:10.37 W/m2 FEW
09:21 3.2 °F /  -16 °C 2.2 °F /  -16.6 °C 991.8in /  33582.3hPa South 2.4mph /  3.9km/h 7.4mph /  11.9km/h 93% 0.5in /  12.7mm WeatherDisplay:10.37 W/m2 RA
09:26 3.2 °F /  -16 °C 2.2 °F /  -16.6 °C 992.1in /  33592.5hPa SSE 3.1mph /  5km/h 5.6mph /  9km/h 93% 0.5in /  12.7mm WeatherDisplay:10.37 W/m2 RA
09:31 3.2 °F /  -16 °C 2.2 °F /  -16.6 °C 992.1in /  33592.5hPa SSE 4.2mph /  6.8km/h 5.6mph /  9km/h 93% 0.5in /  12.7mm WeatherDisplay:10.37 W/m2 FEW
09:36 3.2 °F /  -16 °C 2.2 °F /  -16.6 °C 992.1in /  33592.5hPa SSW 0.6mph /  1km/h 5.6mph /  9km/h 93% 0.5in /  12.7mm WeatherDisplay:10.37 W/m2 FEW
09:41 3.3 °F /  -15.9 °C 2.3 °F /  -16.5 °C 992.1in /  33592.5hPa South 1.6mph /  2.6km/h 9.3mph /  15km/h 93% 0.5in /  12.7mm WeatherDisplay:10.37 W/m2 FEW
09:46 3.3 °F /  -15.9 °C 2.3 °F /  -16.5 °C 992.1in /  33592.5hPa SSE 3.1mph /  5km/h 9.3mph /  15km/h 93% 0.5in /  12.7mm WeatherDisplay:10.37 W/m2 FEW
09:52 3.3 °F /  -15.9 °C 2.3 °F /  -16.5 °C 992.1in /  33592.5hPa SSE 1.0mph /  1.6km/h 5.6mph /  9km/h 93% 0.5in /  12.7mm WeatherDisplay:10.37 W/m2 RA
09:57 3.3 °F /  -15.9 °C 2.3 °F /  -16.5 °C 992.1in /  33592.5hPa SE 2.6mph /  4.2km/h 6.4mph /  10.3km/h 93% 0.8in /  20.32mm WeatherDisplay:10.37 W/m2 RA
10:03 3.2 °F /  -16 °C 2.2 °F /  -16.6 °C 992.1in /  33592.5hPa Calm   1.6mph /  2.6km/h 93% 0.5in /  12.7mm WeatherDisplay:10.37 W/m2 FEW
10:08 3.3 °F /  -15.9 °C 2.3 °F /  -16.5 °C 992.1in /  33592.5hPa SSE 6.0mph /  9.7km/h 16.7mph /  26.9km/h 93% 0.5in /  12.7mm WeatherDisplay:10.37 W/m2 FEW
10:13 3.3 °F /  -15.9 °C 2.3 °F /  -16.5 °C 992.1in /  33592.5hPa South 6.1mph /  9.8km/h 14.8mph /  23.8km/h 93% 0.5in /  12.7mm WeatherDisplay:10.37 W/m2 FEW
10:18 3.2 °F /  -16 °C 2.2 °F /  -16.6 °C 992.1in /  33592.5hPa East 1.8mph /  2.9km/h 5.6mph /  9km/h 93% 0.5in /  12.7mm WeatherDisplay:10.37 W/m2 FEW
10:24 3.2 °F /  -16 °C 2.2 °F /  -16.6 °C 992.4in /  33602.7hPa Calm     93% 0.5in /  12.7mm WeatherDisplay:10.37 W/m2 FEW
10:29 3.2 °F /  -16 °C 2.2 °F /  -16.6 °C 992.4in /  33602.7hPa SSE 4.2mph /  6.8km/h 9.7mph /  15.6km/h 93% 0.5in /  12.7mm WeatherDisplay:10.37 W/m2 FEW
10:32 3.2 °F /  -16 °C 2.2 °F /  -16.6 °C 992.4in /  33602.7hPa SSW 0.6mph /  1km/h 5.6mph /  9km/h 93% 0.5in /  12.7mm WeatherDisplay:10.37 W/m2 FEW
10:38 3.3 °F /  -15.9 °C 2.3 °F /  -16.5 °C 992.4in /  33602.7hPa SSW 2.9mph /  4.7km/h 13.0mph /  20.9km/h 93% 0.5in /  12.7mm WeatherDisplay:10.37 W/m2 FEW
10:40 3.3 °F /  -15.9 °C 2.3 °F /  -16.5 °C 992.4in /  33602.7hPa ENE 3.9mph /  6.3km/h 11.1mph /  17.9km/h 93% 0.5in /  12.7mm WeatherDisplay:10.37 W/m2 FEW
10:45 3.3 °F /  -15.9 °C 2.3 °F /  -16.5 °C 992.4in /  33602.7hPa Calm     93% 0.5in /  12.7mm WeatherDisplay:10.37 W/m2 FEW
10:50 3.3 °F /  -15.9 °C 2.3 °F /  -16.5 °C 992.4in /  33602.7hPa Calm     93% 0.3in /  7.62mm WeatherDisplay:10.37 W/m2 FEW
10:55 3.2 °F /  -16 °C 2.2 °F /  -16.6 °C 992.4in /  33602.7hPa Calm   3.7mph /  6km/h 93% 0.0in /  0mm WeatherDisplay:10.37 W/m2 FEW
11:00 3.2 °F /  -16 °C 2.2 °F /  -16.6 °C 992.4in /  33602.7hPa SE 4.5mph /  7.2km/h 14.5mph /  23.3km/h 93% 0.0in /  0mm WeatherDisplay:10.37 W/m2 FEW
11:05 3.2 °F /  -16 °C 2.2 °F /  -16.6 °C 992.4in /  33602.7hPa SE 3.9mph /  6.3km/h 7.4mph /  11.9km/h 93% 0.0in /  0mm WeatherDisplay:10.37 W/m2 FEW
11:10 3.3 °F /  -15.9 °C 2.3 °F /  -16.5 °C 992.8in /  33616.2hPa South 2.6mph /  4.2km/h 2.6mph /  4.2km/h 93% 0.0in /  0mm WeatherDisplay:10.37 W/m2 FEW
11:13 3.3 °F /  -15.9 °C 2.3 °F /  -16.5 °C 992.8in /  33616.2hPa South 3.9mph /  6.3km/h 13.0mph /  20.9km/h 93% 0.0in /  0mm WeatherDisplay:10.37 W/m2 FEW
11:19 3.3 °F /  -15.9 °C 2.3 °F /  -16.5 °C 992.8in /  33616.2hPa Calm   5.6mph /  9km/h 93% 0.0in /  0mm WeatherDisplay:10.37 W/m2 FEW
11:24 3.3 °F /  -15.9 °C 2.3 °F /  -16.5 °C 992.8in /  33616.2hPa SSE 1.1mph /  1.8km/h 5.6mph /  9km/h 93% 0.0in /  0mm WeatherDisplay:10.37 W/m2 FEW
11:29 3.3 °F /  -15.9 °C 2.3 °F /  -16.5 °C 992.8in /  33616.2hPa South 1.8mph /  2.9km/h 5.6mph /  9km/h 93% 0.3in /  7.62mm WeatherDisplay:10.37 W/m2 RA
11:35 3.3 °F /  -15.9 °C 2.3 °F /  -16.5 °C 992.8in /  33616.2hPa Calm     93% 0.3in /  7.62mm WeatherDisplay:10.37 W/m2 RA
11:40 3.3 °F /  -15.9 °C 2.3 °F /  -16.5 °C 992.8in /  33616.2hPa Calm     93% 0.3in /  7.62mm WeatherDisplay:10.37 W/m2 FEW
11:45 3.3 °F /  -15.9 °C 2.3 °F /  -16.5 °C 992.8in /  33616.2hPa SSE 4.5mph /  7.2km/h 9.7mph /  15.6km/h 93% 0.3in /  7.62mm WeatherDisplay:10.37 W/m2 FEW
11:56 3.3 °F /  -15.9 °C 2.3 °F /  -16.5 °C 992.8in /  33616.2hPa South 1.0mph /  1.6km/h 1.9mph /  3.1km/h 93% 0.3in /  7.62mm WeatherDisplay:10.37 W/m2 FEW
11:57 3.3 °F /  -15.9 °C 2.3 °F /  -16.5 °C 992.8in /  33616.2hPa South 0.3mph /  0.5km/h 5.6mph /  9km/h 93% 0.3in /  7.62mm WeatherDisplay:10.37 W/m2 FEW
12:02 3.3 °F /  -15.9 °C 2.3 °F /  -16.5 °C 992.8in /  33616.2hPa ESE 1.1mph /  1.8km/h 5.6mph /  9km/h 93% 0.3in /  7.62mm WeatherDisplay:10.37 W/m2 FEW
12:08 3.3 °F /  -15.9 °C 2.3 °F /  -16.5 °C 992.8in /  33616.2hPa South 1.8mph /  2.9km/h 5.6mph /  9km/h 93% 0.3in /  7.62mm WeatherDisplay:10.37 W/m2 FEW
12:09 3.3 °F /  -15.9 °C 2.3 °F /  -16.5 °C 992.8in /  33616.2hPa Calm     93% 0.3in /  7.62mm WeatherDisplay:10.37 W/m2 FEW
12:14 3.3 °F /  -15.9 °C 2.3 °F /  -16.5 °C 992.8in /  33616.2hPa SSE 1.0mph /  1.6km/h 5.6mph /  9km/h 93% 0.3in /  7.62mm WeatherDisplay:10.37 W/m2 FEW
12:19 3.3 °F /  -15.9 °C 2.3 °F /  -16.5 °C 992.8in /  33616.2hPa South 1.1mph /  1.8km/h 5.6mph /  9km/h 93% 0.3in /  7.62mm WeatherDisplay:10.37 W/m2 FEW
12:24 3.3 °F /  -15.9 °C 2.3 °F /  -16.5 °C 992.8in /  33616.2hPa Calm     93% 0.3in /  7.62mm WeatherDisplay:10.37 W/m2 FEW
12:29 3.3 °F /  -15.9 °C 2.3 °F /  -16.5 °C 992.4in /  33602.7hPa SSE 4.5mph /  7.2km/h 9.3mph /  15km/h 93% 0.0in /  0mm WeatherDisplay:10.37 W/m2 FEW
12:34 3.3 °F /  -15.9 °C 2.3 °F /  -16.5 °C 992.4in /  33602.7hPa SE 1.9mph /  3.1km/h 13.0mph /  20.9km/h 93% 0.0in /  0mm WeatherDisplay:10.37 W/m2 FEW
12:40 3.3 °F /  -15.9 °C 2.3 °F /  -16.5 °C 992.4in /  33602.7hPa SE 0.8mph /  1.3km/h 5.6mph /  9km/h 93% 0.0in /  0mm WeatherDisplay:10.37 W/m2 FEW
12:45 3.2 °F /  -16 °C 2.2 °F /  -16.6 °C 992.4in /  33602.7hPa SE 4.2mph /  6.8km/h 13.0mph /  20.9km/h 93% 0.0in /  0mm WeatherDisplay:10.37 W/m2 FEW
12:51 3.2 °F /  -16 °C 2.2 °F /  -16.6 °C 992.8in /  33616.2hPa South 2.3mph /  3.7km/h 5.6mph /  9km/h 93% 0.3in /  7.62mm WeatherDisplay:10.37 W/m2 RA
12:52 3.2 °F /  -16 °C 2.2 °F /  -16.6 °C 992.8in /  33616.2hPa South 0.8mph /  1.3km/h 5.6mph /  9km/h 93% 0.3in /  7.62mm WeatherDisplay:10.37 W/m2 RA
12:56 3.2 °F /  -16 °C 2.2 °F /  -16.6 °C 992.4in /  33602.7hPa SE 0.6mph /  1km/h 7.4mph /  11.9km/h 93% 0.3in /  7.62mm WeatherDisplay:10.37 W/m2 RA
12:57 3.2 °F /  -16 °C 2.2 °F /  -16.6 °C 992.4in /  33602.7hPa Calm     93% 0.3in /  7.62mm WeatherDisplay:10.37 W/m2 RA
13:03 3.2 °F /  -16 °C 2.2 °F /  -16.6 °C 992.4in /  33602.7hPa South 4.0mph /  6.4km/h 5.6mph /  9km/h 93% 0.3in /  7.62mm WeatherDisplay:10.37 W/m2 FEW
13:08 3.2 °F /  -16 °C 2.2 °F /  -16.6 °C 992.8in /  33616.2hPa SE 1.0mph /  1.6km/h 4.8mph /  7.7km/h 93% 0.5in /  12.7mm WeatherDisplay:10.37 W/m2 RA
13:13 3.2 °F /  -16 °C 2.2 °F /  -16.6 °C 992.8in /  33616.2hPa South 3.7mph /  6km/h 11.1mph /  17.9km/h 93% 0.5in /  12.7mm WeatherDisplay:10.37 W/m2 RA
13:18 3.2 °F /  -16 °C 2.2 °F /  -16.6 °C 992.8in /  33616.2hPa South 1.0mph /  1.6km/h 7.4mph /  11.9km/h 93% 0.5in /  12.7mm WeatherDisplay:10.37 W/m2 FEW
13:19 3.2 °F /  -16 °C 2.2 °F /  -16.6 °C 992.4in /  33602.7hPa Calm     93% 0.5in /  12.7mm WeatherDisplay:10.37 W/m2 FEW
13:25 3.2 °F /  -16 °C 2.2 °F /  -16.6 °C 992.4in /  33602.7hPa SSE 0.5mph /  0.8km/h 5.6mph /  9km/h 93% 0.5in /  12.7mm WeatherDisplay:10.37 W/m2 RA
13:31 3.2 °F /  -16 °C 2.2 °F /  -16.6 °C 992.4in /  33602.7hPa SSE 2.4mph /  3.9km/h 7.4mph /  11.9km/h 93% 0.5in /  12.7mm WeatherDisplay:10.37 W/m2 FEW
13:36 3.2 °F /  -16 °C 2.2 °F /  -16.6 °C 992.4in /  33602.7hPa SE 1.0mph /  1.6km/h 11.3mph /  18.2km/h 93% 0.5in /  12.7mm WeatherDisplay:10.37 W/m2 FEW
13:41 3.2 °F /  -16 °C 2.2 °F /  -16.6 °C 992.4in /  33602.7hPa SSE 0.3mph /  0.5km/h 3.7mph /  6km/h 93% 0.5in /  12.7mm WeatherDisplay:10.37 W/m2 FEW
13:46 3.1 °F /  -16.1 °C 2.1 °F /  -16.6 °C 992.4in /  33602.7hPa ESE 1.4mph /  2.3km/h 8.0mph /  12.9km/h 93% 0.5in /  12.7mm WeatherDisplay:10.37 W/m2 FEW
13:47 3.2 °F /  -16 °C 2.2 °F /  -16.6 °C 992.4in /  33602.7hPa ESE 3.2mph /  5.1km/h 7.4mph /  11.9km/h 93% 0.5in /  12.7mm WeatherDisplay:10.37 W/m2 FEW
13:52 3.1 °F /  -16.1 °C 2.1 °F /  -16.6 °C 992.4in /  33602.7hPa Calm     93% 0.5in /  12.7mm WeatherDisplay:10.37 W/m2 RA
13:57 3.1 °F /  -16.1 °C 2.1 °F /  -16.6 °C 992.4in /  33602.7hPa Calm     93% 0.5in /  12.7mm WeatherDisplay:10.37 W/m2 RA
14:02 3.1 °F /  -16.1 °C 2.1 °F /  -16.6 °C 992.4in /  33602.7hPa SE 4.5mph /  7.2km/h 13.0mph /  20.9km/h 93% 0.5in /  12.7mm WeatherDisplay:10.37 W/m2 FEW
14:08 3.1 °F /  -16.1 °C 2.1 °F /  -16.6 °C 992.4in /  33602.7hPa Calm     93% 0.5in /  12.7mm WeatherDisplay:10.37 W/m2 RA
14:14 3.1 °F /  -16.1 °C 2.1 °F /  -16.6 °C 992.4in /  33602.7hPa SSE 1.8mph /  2.9km/h 9.3mph /  15km/h 93% 0.5in /  12.7mm WeatherDisplay:10.37 W/m2 RA
14:19 3.1 °F /  -16.1 °C 2.1 °F /  -16.6 °C 992.4in /  33602.7hPa Calm   5.6mph /  9km/h 93% 0.5in /  12.7mm WeatherDisplay:10.37 W/m2 FEW
14:20 3.1 °F /  -16.1 °C 2.1 °F /  -16.6 °C 992.4in /  33602.7hPa Calm   3.2mph /  5.1km/h 93% 0.5in /  12.7mm WeatherDisplay:10.37 W/m2 FEW
14:26 3.1 °F /  -16.1 °C 2.1 °F /  -16.6 °C 992.4in /  33602.7hPa Calm     93% 0.5in /  12.7mm WeatherDisplay:10.37 W/m2 FEW
14:28 3.1 °F /  -16.1 °C 2.1 °F /  -16.6 °C 992.4in /  33602.7hPa SE 0.5mph /  0.8km/h 3.2mph /  5.1km/h 93% 0.5in /  12.7mm WeatherDisplay:10.37 W/m2 FEW
14:34 3.1 °F /  -16.1 °C 2.1 °F /  -16.6 °C 992.4in /  33602.7hPa South 6.8mph /  10.9km/h 16.7mph /  26.9km/h 93% 0.5in /  12.7mm WeatherDisplay:10.37 W/m2 RA
14:39 3.1 °F /  -16.1 °C 2.1 °F /  -16.6 °C 992.4in /  33602.7hPa South 1.0mph /  1.6km/h 5.6mph /  9km/h 93% 0.5in /  12.7mm WeatherDisplay:10.37 W/m2 RA
14:44 3.1 °F /  -16.1 °C 2.1 °F /  -16.6 °C 992.4in /  33602.7hPa South 1.9mph /  3.1km/h 5.6mph /  9km/h 93% 0.5in /  12.7mm WeatherDisplay:10.37 W/m2 FEW
14:49 3.1 °F /  -16.1 °C 2.1 °F /  -16.6 °C 992.4in /  33602.7hPa SE 8.7mph /  14km/h 16.7mph /  26.9km/h 93% 0.5in /  12.7mm WeatherDisplay:10.37 W/m2 FEW
14:54 3.2 °F /  -16 °C 2.2 °F /  -16.6 °C 992.4in /  33602.7hPa SE 1.4mph /  2.3km/h 3.2mph /  5.1km/h 93% 0.5in /  12.7mm WeatherDisplay:10.37 W/m2 FEW
14:56 3.2 °F /  -16 °C 2.2 °F /  -16.6 °C 992.4in /  33602.7hPa Calm   5.6mph /  9km/h 93% 0.5in /  12.7mm WeatherDisplay:10.37 W/m2 FEW
15:01 3.2 °F /  -16 °C 2.2 °F /  -16.6 °C 992.4in /  33602.7hPa Calm     93% 0.5in /  12.7mm WeatherDisplay:10.37 W/m2 FEW
15:07 3.2 °F /  -16 °C 2.2 °F /  -16.6 °C 992.4in /  33602.7hPa SSE 0.2mph /  0.3km/h 1.9mph /  3.1km/h 93% 0.5in /  12.7mm WeatherDisplay:10.37 W/m2 FEW
15:12 3.2 °F /  -16 °C 2.2 °F /  -16.6 °C 992.4in /  33602.7hPa SE 1.4mph /  2.3km/h 5.6mph /  9km/h 93% 0.3in /  7.62mm WeatherDisplay:10.37 W/m2 FEW
15:17 3.2 °F /  -16 °C 2.2 °F /  -16.6 °C 992.4in /  33602.7hPa Calm   4.8mph /  7.7km/h 93% 0.3in /  7.62mm WeatherDisplay:10.37 W/m2 FEW
15:22 3.2 °F /  -16 °C 2.2 °F /  -16.6 °C 992.4in /  33602.7hPa SE 4.0mph /  6.4km/h 7.4mph /  11.9km/h 93% 0.3in /  7.62mm WeatherDisplay:10.37 W/m2 FEW
15:27 3.3 °F /  -15.9 °C 2.3 °F /  -16.5 °C 992.4in /  33602.7hPa ESE 2.6mph /  4.2km/h 4.8mph /  7.7km/h 93% 0.3in /  7.62mm WeatherDisplay:10.37 W/m2 FEW
15:33 3.3 °F /  -15.9 °C 2.3 °F /  -16.5 °C 992.4in /  33602.7hPa ESE 2.9mph /  4.7km/h 5.6mph /  9km/h 93% 0.0in /  0mm WeatherDisplay:10.37 W/m2 FEW
15:38 3.3 °F /  -15.9 °C 2.3 °F /  -16.5 °C 992.4in /  33602.7hPa Calm   5.6mph /  9km/h 93% 0.0in /  0mm WeatherDisplay:10.37 W/m2 FEW
15:44 3.3 °F /  -15.9 °C 2.3 °F /  -16.5 °C 992.4in /  33602.7hPa SE 4.2mph /  6.8km/h 11.1mph /  17.9km/h 93% 0.0in /  0mm WeatherDisplay:10.37 W/m2 FEW
15:49 3.3 °F /  -15.9 °C 2.3 °F /  -16.5 °C 992.4in /  33602.7hPa SSE 1.3mph /  2.1km/h 5.6mph /  9km/h 93% 0.0in /  0mm WeatherDisplay:10.37 W/m2 FEW
15:55 3.3 °F /  -15.9 °C 2.3 °F /  -16.5 °C 992.4in /  33602.7hPa Calm     93% 0.0in /  0mm WeatherDisplay:10.37 W/m2 FEW
15:57 3.3 °F /  -15.9 °C 2.3 °F /  -16.5 °C 992.4in /  33602.7hPa SSE 1.6mph /  2.6km/h 5.6mph /  9km/h 93% 0.0in /  0mm WeatherDisplay:10.37 W/m2 FEW
16:02 3.3 °F /  -15.9 °C 2.3 °F /  -16.5 °C 992.4in /  33602.7hPa SSW 2.6mph /  4.2km/h 13.0mph /  20.9km/h 93% 0.0in /  0mm WeatherDisplay:10.37 W/m2 FEW
16:07 3.4 °F /  -15.9 °C 2.4 °F /  -16.4 °C 992.4in /  33602.7hPa SE 0.5mph /  0.8km/h 5.6mph /  9km/h 93% 0.3in /  7.62mm WeatherDisplay:10.37 W/m2 RA
16:12 3.4 °F /  -15.9 °C 2.4 °F /  -16.4 °C 992.4in /  33602.7hPa ESE 1.1mph /  1.8km/h 4.8mph /  7.7km/h 93% 0.3in /  7.62mm WeatherDisplay:10.37 W/m2 RA
16:18 3.4 °F /  -15.9 °C 2.4 °F /  -16.4 °C 992.4in /  33602.7hPa SE 0.2mph /  0.3km/h 1.9mph /  3.1km/h 93% 0.3in /  7.62mm WeatherDisplay:10.37 W/m2 FEW
16:23 3.3 °F /  -15.9 °C 2.3 °F /  -16.5 °C 992.4in /  33602.7hPa ESE 5.3mph /  8.5km/h 11.1mph /  17.9km/h 93% 0.3in /  7.62mm WeatherDisplay:10.37 W/m2 FEW
16:28 3.4 °F /  -15.9 °C 2.4 °F /  -16.4 °C 992.4in /  33602.7hPa SE 4.5mph /  7.2km/h 9.3mph /  15km/h 93% 0.3in /  7.62mm WeatherDisplay:10.37 W/m2 FEW
16:31 3.4 °F /  -15.9 °C 2.4 °F /  -16.4 °C 992.4in /  33602.7hPa South 6.3mph /  10.1km/h 14.8mph /  23.8km/h 93% 0.3in /  7.62mm WeatherDisplay:10.37 W/m2 FEW
16:37 3.4 °F /  -15.9 °C 2.4 °F /  -16.4 °C 992.4in /  33602.7hPa SSE 2.1mph /  3.4km/h 8.0mph /  12.9km/h 93% 0.3in /  7.62mm WeatherDisplay:10.37 W/m2 FEW
16:42 3.4 °F /  -15.9 °C 2.4 °F /  -16.4 °C 992.4in /  33602.7hPa ESE 1.1mph /  1.8km/h 13.0mph /  20.9km/h 93% 0.3in /  7.62mm WeatherDisplay:10.37 W/m2 FEW
16:47 3.4 °F /  -15.9 °C 2.4 °F /  -16.4 °C 992.4in /  33602.7hPa ESE 0.3mph /  0.5km/h 5.6mph /  9km/h 93% 0.3in /  7.62mm WeatherDisplay:10.37 W/m2 FEW
16:52 3.4 °F /  -15.9 °C 2.4 °F /  -16.4 °C 992.4in /  33602.7hPa Calm     93% 0.3in /  7.62mm WeatherDisplay:10.37 W/m2 FEW
16:57 3.4 °F /  -15.9 °C 2.4 °F /  -16.4 °C 992.4in /  33602.7hPa SE 1.1mph /  1.8km/h 6.4mph /  10.3km/h 93% 0.3in /  7.62mm WeatherDisplay:10.37 W/m2 FEW
17:03 3.4 °F /  -15.9 °C 2.4 °F /  -16.4 °C 992.1in /  33592.5hPa SSE 5.0mph /  8km/h 7.4mph /  11.9km/h 93% 0.3in /  7.62mm WeatherDisplay:10.37 W/m2 FEW
17:06 3.4 °F /  -15.9 °C 2.4 °F /  -16.4 °C 992.1in /  33592.5hPa SE 2.4mph /  3.9km/h 7.4mph /  11.9km/h 93% 0.0in /  0mm WeatherDisplay:10.37 W/m2 FEW
17:12 3.4 °F /  -15.9 °C 2.4 °F /  -16.4 °C 992.1in /  33592.5hPa South 4.2mph /  6.8km/h 5.6mph /  9km/h 93% 0.0in /  0mm WeatherDisplay:10.37 W/m2 FEW
17:18 3.5 °F /  -15.8 °C 2.5 °F /  -16.4 °C 992.1in /  33592.5hPa SE 1.9mph /  3.1km/h 6.4mph /  10.3km/h 93% 0.0in /  0mm WeatherDisplay:10.37 W/m2 FEW
17:20 3.5 °F /  -15.8 °C 2.5 °F /  -16.4 °C 992.1in /  33592.5hPa SSE 6.3mph /  10.1km/h 11.1mph /  17.9km/h 93% 0.0in /  0mm WeatherDisplay:10.37 W/m2 FEW
17:25 3.5 °F /  -15.8 °C 2.5 °F /  -16.4 °C 992.1in /  33592.5hPa SE 0.3mph /  0.5km/h 5.6mph /  9km/h 93% 0.0in /  0mm WeatherDisplay:10.37 W/m2 FEW
17:31 3.5 °F /  -15.8 °C 2.5 °F /  -16.4 °C 992.1in /  33592.5hPa Calm     93% 0.0in /  0mm WeatherDisplay:10.37 W/m2 FEW
17:36 3.5 °F /  -15.8 °C 2.5 °F /  -16.4 °C 992.1in /  33592.5hPa SSE 1.8mph /  2.9km/h 6.4mph /  10.3km/h 93% 0.0in /  0mm WeatherDisplay:10.37 W/m2 FEW
17:41 3.5 °F /  -15.8 °C 2.5 °F /  -16.4 °C 991.8in /  33582.3hPa East 0.5mph /  0.8km/h 7.4mph /  11.9km/h 93% 0.0in /  0mm WeatherDisplay:10.37 W/m2 FEW
17:47 3.5 °F /  -15.8 °C 2.5 °F /  -16.4 °C 991.8in /  33582.3hPa Calm     93% 0.0in /  0mm WeatherDisplay:10.37 W/m2 FEW
17:50 3.5 °F /  -15.8 °C 2.5 °F /  -16.4 °C 991.8in /  33582.3hPa SSE 0.5mph /  0.8km/h 1.6mph /  2.6km/h 93% 0.0in /  0mm WeatherDisplay:10.37 W/m2 FEW
17:56 3.5 °F /  -15.8 °C 2.5 °F /  -16.4 °C 991.8in /  33582.3hPa ENE 1.3mph /  2.1km/h 11.1mph /  17.9km/h 93% 0.0in /  0mm WeatherDisplay:10.37 W/m2 FEW
18:01 3.6 °F /  -15.8 °C 2.6 °F /  -16.3 °C 991.8in /  33582.3hPa East 0.8mph /  1.3km/h 4.8mph /  7.7km/h 93% 0.0in /  0mm WeatherDisplay:10.37 W/m2 FEW
18:06 3.6 °F /  -15.8 °C 2.6 °F /  -16.3 °C 991.8in /  33582.3hPa SSE 1.4mph /  2.3km/h 8.0mph /  12.9km/h 93% 0.0in /  0mm WeatherDisplay:10.37 W/m2 FEW
18:11 3.6 °F /  -15.8 °C 2.6 °F /  -16.3 °C 991.8in /  33582.3hPa Calm   5.6mph /  9km/h 93% 0.0in /  0mm WeatherDisplay:10.37 W/m2 FEW
18:12 3.6 °F /  -15.8 °C 2.6 °F /  -16.3 °C 991.8in /  33582.3hPa SE 2.4mph /  3.9km/h 8.0mph /  12.9km/h 93% 0.0in /  0mm WeatherDisplay:10.37 W/m2 FEW
18:17 3.6 °F /  -15.8 °C 2.6 °F /  -16.3 °C 991.8in /  33582.3hPa ESE 1.0mph /  1.6km/h 7.4mph /  11.9km/h 93% 0.0in /  0mm WeatherDisplay:10.37 W/m2 FEW
18:22 3.6 °F /  -15.8 °C 2.6 °F /  -16.3 °C 991.4in /  33568.8hPa SSW 2.6mph /  4.2km/h 4.8mph /  7.7km/h 93% 0.0in /  0mm WeatherDisplay:10.37 W/m2 FEW
18:27 3.6 °F /  -15.8 °C 2.6 °F /  -16.3 °C 991.4in /  33568.8hPa ENE 0.2mph /  0.3km/h 1.9mph /  3.1km/h 93% 0.0in /  0mm WeatherDisplay:10.37 W/m2 FEW
18:32 3.6 °F /  -15.8 °C 2.6 °F /  -16.3 °C 991.4in /  33568.8hPa SE 0.2mph /  0.3km/h 3.7mph /  6km/h 93% 0.0in /  0mm WeatherDisplay:10.37 W/m2 FEW
18:38 3.6 °F /  -15.8 °C 2.6 °F /  -16.3 °C 991.4in /  33568.8hPa NNE 0.3mph /  0.5km/h 8.0mph /  12.9km/h 93% 0.0in /  0mm WeatherDisplay:10.37 W/m2 FEW
18:43 3.6 °F /  -15.8 °C 2.6 °F /  -16.3 °C 991.4in /  33568.8hPa East 0.5mph /  0.8km/h 5.6mph /  9km/h 93% 0.3in /  7.62mm WeatherDisplay:10.37 W/m2 RA
18:49 3.6 °F /  -15.8 °C 2.6 °F /  -16.3 °C 991.4in /  33568.8hPa ESE 1.4mph /  2.3km/h 5.6mph /  9km/h 93% 0.3in /  7.62mm WeatherDisplay:10.37 W/m2 RA
18:54 3.6 °F /  -15.8 °C 2.6 °F /  -16.3 °C 991.4in /  33568.8hPa Calm   7.4mph /  11.9km/h 93% 0.3in /  7.62mm WeatherDisplay:10.37 W/m2 FEW
18:59 3.6 °F /  -15.8 °C 2.6 °F /  -16.3 °C 991.4in /  33568.8hPa SE 0.2mph /  0.3km/h 4.8mph /  7.7km/h 93% 0.3in /  7.62mm WeatherDisplay:10.37 W/m2 FEW
19:04 3.6 °F /  -15.8 °C 2.6 °F /  -16.3 °C 991.4in /  33568.8hPa SSE 3.5mph /  5.6km/h 3.7mph /  6km/h 93% 0.3in /  7.62mm WeatherDisplay:10.37 W/m2 FEW
19:09 3.6 °F /  -15.8 °C 2.6 °F /  -16.3 °C 991.4in /  33568.8hPa ESE 2.4mph /  3.9km/h 5.6mph /  9km/h 93% 0.3in /  7.62mm WeatherDisplay:10.37 W/m2 FEW
19:12 3.6 °F /  -15.8 °C 2.6 °F /  -16.3 °C 991.4in /  33568.8hPa East 2.7mph /  4.3km/h 13.0mph /  20.9km/h 93% 0.3in /  7.62mm WeatherDisplay:10.37 W/m2 FEW
19:17 3.6 °F /  -15.8 °C 2.6 °F /  -16.3 °C 991.4in /  33568.8hPa South 3.2mph /  5.1km/h 9.3mph /  15km/h 93% 0.3in /  7.62mm WeatherDisplay:10.37 W/m2 FEW
19:22 3.6 °F /  -15.8 °C 2.6 °F /  -16.3 °C 991.1in /  33558.6hPa SE 5.0mph /  8km/h 16.1mph /  25.9km/h 93% 0.3in /  7.62mm WeatherDisplay:10.37 W/m2 FEW
19:27 3.6 °F /  -15.8 °C 2.6 °F /  -16.3 °C 991.1in /  33558.6hPa SE 5.1mph /  8.2km/h 11.1mph /  17.9km/h 93% 0.3in /  7.62mm WeatherDisplay:10.37 W/m2 FEW
19:32 3.6 °F /  -15.8 °C 2.6 °F /  -16.3 °C 991.1in /  33558.6hPa SE 3.7mph /  6km/h 11.1mph /  17.9km/h 93% 0.3in /  7.62mm WeatherDisplay:10.37 W/m2 FEW
19:39 3.5 °F /  -15.8 °C 2.5 °F /  -16.4 °C 991.1in /  33558.6hPa SSE 2.6mph /  4.2km/h 9.7mph /  15.6km/h 93% 0.5in /  12.7mm WeatherDisplay:10.37 W/m2 RA
19:43 3.5 °F /  -15.8 °C 2.5 °F /  -16.4 °C 991.1in /  33558.6hPa ESE 1.9mph /  3.1km/h 7.4mph /  11.9km/h 93% 0.5in /  12.7mm WeatherDisplay:10.37 W/m2 RA
19:48 3.4 °F /  -15.9 °C 2.4 °F /  -16.4 °C 991.1in /  33558.6hPa East 8.0mph /  12.9km/h 16.7mph /  26.9km/h 93% 0.5in /  12.7mm WeatherDisplay:10.37 W/m2 RA
19:53 3.4 °F /  -15.9 °C 2.4 °F /  -16.4 °C 991.1in /  33558.6hPa Calm     93% 0.8in /  20.32mm WeatherDisplay:10.37 W/m2 RA
19:58 3.4 °F /  -15.9 °C 2.4 °F /  -16.4 °C 991.1in /  33558.6hPa ESE 2.6mph /  4.2km/h 16.1mph /  25.9km/h 93% 0.8in /  20.32mm WeatherDisplay:10.37 W/m2 RA
20:03 3.4 °F /  -15.9 °C 2.4 °F /  -16.4 °C 991.1in /  33558.6hPa WNW 3.1mph /  5km/h 16.7mph /  26.9km/h 93% 0.8in /  20.32mm WeatherDisplay:10.37 W/m2 FEW
20:06 3.4 °F /  -15.9 °C 2.4 °F /  -16.4 °C 990.7in /  33545.1hPa SE 4.3mph /  6.9km/h 9.3mph /  15km/h 93% 0.8in /  20.32mm WeatherDisplay:10.37 W/m2 FEW
20:12 3.4 °F /  -15.9 °C 2.4 °F /  -16.4 °C 990.7in /  33545.1hPa Calm   9.3mph /  15km/h 93% 1.0in /  25.4mm WeatherDisplay:10.37 W/m2 RA
20:16 3.4 °F /  -15.9 °C 2.4 °F /  -16.4 °C 990.7in /  33545.1hPa SSE 7.1mph /  11.4km/h 13.0mph /  20.9km/h 93% 1.0in /  25.4mm WeatherDisplay:10.37 W/m2 RA
20:21 3.4 °F /  -15.9 °C 2.4 °F /  -16.4 °C 990.7in /  33545.1hPa SE 8.2mph /  13.2km/h 16.7mph /  26.9km/h 93% 1.0in /  25.4mm WeatherDisplay:10.37 W/m2 FEW
20:27 3.4 °F /  -15.9 °C 2.4 °F /  -16.4 °C 990.7in /  33545.1hPa Calm   5.6mph /  9km/h 93% 1.3in /  33.02mm WeatherDisplay:10.37 W/m2 RA
20:32 3.4 °F /  -15.9 °C 2.4 °F /  -16.4 °C 990.7in /  33545.1hPa South 1.9mph /  3.1km/h 7.4mph /  11.9km/h 93% 1.5in /  38.1mm WeatherDisplay:10.37 W/m2 RA
20:37 3.4 °F /  -15.9 °C 2.4 °F /  -16.4 °C 990.7in /  33545.1hPa Calm     93% 1.5in /  38.1mm WeatherDisplay:10.37 W/m2 RA
20:43 3.3 °F /  -15.9 °C 2.3 °F /  -16.5 °C 990.7in /  33545.1hPa South 0.2mph /  0.3km/h 5.6mph /  9km/h 93% 1.5in /  38.1mm WeatherDisplay:10.37 W/m2 RA
20:48 3.2 °F /  -16 °C 2.2 °F /  -16.6 °C 990.7in /  33545.1hPa ESE 6.1mph /  9.8km/h 18.5mph /  29.8km/h 93% 1.5in /  38.1mm WeatherDisplay:10.37 W/m2 RA
20:53 3.2 °F /  -16 °C 2.2 °F /  -16.6 °C 990.7in /  33545.1hPa SSE 9.8mph /  15.8km/h 17.7mph /  28.5km/h 93% 1.3in /  33.02mm WeatherDisplay:10.37 W/m2 RA
20:58 3.2 °F /  -16 °C 2.2 °F /  -16.6 °C 990.7in /  33545.1hPa SSE 1.6mph /  2.6km/h 5.6mph /  9km/h 93% 1.5in /  38.1mm WeatherDisplay:10.37 W/m2 RA
21:03 3.2 °F /  -16 °C 2.2 °F /  -16.6 °C 990.7in /  33545.1hPa SSW 2.1mph /  3.4km/h 9.3mph /  15km/h 93% 1.5in /  38.1mm WeatherDisplay:10.37 W/m2 RA
21:09 3.2 °F /  -16 °C 2.2 °F /  -16.6 °C 990.7in /  33545.1hPa ENE 9.8mph /  15.8km/h 14.5mph /  23.3km/h 93% 1.8in /  45.72mm WeatherDisplay:10.37 W/m2 RA
21:14 3.2 °F /  -16 °C 2.2 °F /  -16.6 °C 990.7in /  33545.1hPa ESE 1.0mph /  1.6km/h 9.3mph /  15km/h 93% 1.5in /  38.1mm WeatherDisplay:10.37 W/m2 RA
21:19 3.1 °F /  -16.1 °C 2.1 °F /  -16.6 °C 990.7in /  33545.1hPa SE 1.0mph /  1.6km/h 9.7mph /  15.6km/h 93% 1.8in /  45.72mm WeatherDisplay:10.37 W/m2 RA
21:20 3.1 °F /  -16.1 °C 2.1 °F /  -16.6 °C 990.7in /  33545.1hPa South 4.0mph /  6.4km/h 9.7mph /  15.6km/h 93% 1.8in /  45.72mm WeatherDisplay:10.37 W/m2 RA
21:25 3.1 °F /  -16.1 °C 2.1 °F /  -16.6 °C 990.7in /  33545.1hPa Calm     93% 1.8in /  45.72mm WeatherDisplay:10.37 W/m2 RA
21:30 3.1 °F /  -16.1 °C 2.1 °F /  -16.6 °C 990.4in /  33534.9hPa ENE 2.6mph /  4.2km/h 9.7mph /  15.6km/h 93% 1.5in /  38.1mm WeatherDisplay:10.37 W/m2 RA
21:35 3.1 °F /  -16.1 °C 2.1 °F /  -16.6 °C 990.4in /  33534.9hPa SSE 1.6mph /  2.6km/h 5.6mph /  9km/h 93% 1.8in /  45.72mm WeatherDisplay:10.37 W/m2 RA
21:39 3.1 °F /  -16.1 °C 2.1 °F /  -16.6 °C 990.4in /  33534.9hPa East 7.7mph /  12.4km/h 16.7mph /  26.9km/h 93% 1.5in /  38.1mm WeatherDisplay:10.37 W/m2 RA
21:44 3.1 °F /  -16.1 °C 2.1 °F /  -16.6 °C 990.4in /  33534.9hPa East 5.3mph /  8.5km/h 13.0mph /  20.9km/h 93% 1.5in /  38.1mm WeatherDisplay:10.37 W/m2 RA
21:49 3.1 °F /  -16.1 °C 2.1 °F /  -16.6 °C 990.4in /  33534.9hPa ESE 2.9mph /  4.7km/h 5.6mph /  9km/h 93% 1.5in /  38.1mm WeatherDisplay:10.37 W/m2 RA
21:54 3.1 °F /  -16.1 °C 2.1 °F /  -16.6 °C 990.4in /  33534.9hPa SSE 5.8mph /  9.3km/h 11.1mph /  17.9km/h 93% 1.5in /  38.1mm WeatherDisplay:10.37 W/m2 FEW
21:59 3.1 °F /  -16.1 °C 2.1 °F /  -16.6 °C 990.4in /  33534.9hPa ESE 2.1mph /  3.4km/h 11.1mph /  17.9km/h 93% 1.5in /  38.1mm WeatherDisplay:10.37 W/m2 RA
22:00 3.1 °F /  -16.1 °C 2.1 °F /  -16.6 °C 990.4in /  33534.9hPa SE 3.2mph /  5.1km/h 5.6mph /  9km/h 93% 1.5in /  38.1mm WeatherDisplay:10.37 W/m2 RA
22:05 3.1 °F /  -16.1 °C 2.1 °F /  -16.6 °C 990.4in /  33534.9hPa SE 5.3mph /  8.5km/h 9.3mph /  15km/h 93% 1.3in /  33.02mm WeatherDisplay:10.37 W/m2 RA
22:10 3.1 °F /  -16.1 °C 2.1 °F /  -16.6 °C 990.4in /  33534.9hPa SE 4.7mph /  7.6km/h 11.3mph /  18.2km/h 93% 1.0in /  25.4mm WeatherDisplay:10.37 W/m2 FEW
22:15 3.1 °F /  -16.1 °C 2.1 °F /  -16.6 °C 990.1in /  33524.8hPa SE 1.4mph /  2.3km/h 7.4mph /  11.9km/h 93% 0.8in /  20.32mm WeatherDisplay:10.37 W/m2 FEW
22:20 3.1 °F /  -16.1 °C 2.1 °F /  -16.6 °C 990.4in /  33534.9hPa SE 1.4mph /  2.3km/h 14.8mph /  23.8km/h 93% 1.0in /  25.4mm WeatherDisplay:10.37 W/m2 RA
22:25 3.1 °F /  -16.1 °C 2.1 °F /  -16.6 °C 990.4in /  33534.9hPa Calm   5.6mph /  9km/h 93% 0.8in /  20.32mm WeatherDisplay:10.37 W/m2 RA
22:30 3.1 °F /  -16.1 °C 2.1 °F /  -16.6 °C 990.4in /  33534.9hPa ENE 2.9mph /  4.7km/h 5.6mph /  9km/h 93% 0.8in /  20.32mm WeatherDisplay:10.37 W/m2 FEW
22:36 3.1 °F /  -16.1 °C 2.1 °F /  -16.6 °C 990.4in /  33534.9hPa ESE 4.8mph /  7.7km/h 9.3mph /  15km/h 93% 0.5in /  12.7mm WeatherDisplay:10.37 W/m2 FEW
22:41 3.1 °F /  -16.1 °C 2.1 °F /  -16.6 °C 990.4in /  33534.9hPa SE 0.3mph /  0.5km/h 6.4mph /  10.3km/h 93% 0.5in /  12.7mm WeatherDisplay:10.37 W/m2 FEW
22:46 3.1 °F /  -16.1 °C 2.1 °F /  -16.6 °C 990.4in /  33534.9hPa SE 1.1mph /  1.8km/h 5.6mph /  9km/h 93% 0.5in /  12.7mm WeatherDisplay:10.37 W/m2 FEW
22:48 3.1 °F /  -16.1 °C 2.1 °F /  -16.6 °C 990.4in /  33534.9hPa SSE 0.6mph /  1km/h 4.8mph /  7.7km/h 93% 0.5in /  12.7mm WeatherDisplay:10.37 W/m2 FEW
22:53 3.1 °F /  -16.1 °C 2.1 °F /  -16.6 °C 990.1in /  33524.8hPa ESE 3.5mph /  5.6km/h 11.1mph /  17.9km/h 93% 0.5in /  12.7mm WeatherDisplay:10.37 W/m2 FEW
22:58 3.1 °F /  -16.1 °C 2.1 °F /  -16.6 °C 990.1in /  33524.8hPa Calm     93% 0.3in /  7.62mm WeatherDisplay:10.37 W/m2 FEW
23:04 3.1 °F /  -16.1 °C 2.1 °F /  -16.6 °C 990.1in /  33524.8hPa SSE 0.2mph /  0.3km/h 1.9mph /  3.1km/h 93% 0.3in /  7.62mm WeatherDisplay:10.37 W/m2 FEW
23:07 3.1 °F /  -16.1 °C 2.1 °F /  -16.6 °C 990.1in /  33524.8hPa Calm     93% 0.3in /  7.62mm WeatherDisplay:10.37 W/m2 FEW
23:12 3.1 °F /  -16.1 °C 2.1 °F /  -16.6 °C 990.1in /  33524.8hPa Calm     93% 0.3in /  7.62mm WeatherDisplay:10.37 W/m2 FEW
23:17 3.0 °F /  -16.1 °C 2.0 °F /  -16.7 °C 990.1in /  33524.8hPa SE 0.6mph /  1km/h 5.6mph /  9km/h 93% 0.3in /  7.62mm WeatherDisplay:10.37 W/m2 FEW
23:18 3.1 °F /  -16.1 °C 2.1 °F /  -16.6 °C 990.1in /  33524.8hPa Calm     93% 0.3in /  7.62mm WeatherDisplay:10.37 W/m2 FEW
23:23 3.0 °F /  -16.1 °C 2.0 °F /  -16.7 °C 990.1in /  33524.8hPa Calm   1.9mph /  3.1km/h 93% 0.3in /  7.62mm WeatherDisplay:10.37 W/m2 RA
23:28 3.0 °F /  -16.1 °C 2.0 °F /  -16.7 °C 990.1in /  33524.8hPa Calm   1.9mph /  3.1km/h 93% 0.3in /  7.62mm WeatherDisplay:10.37 W/m2 RA
23:33 3.0 °F /  -16.1 °C 2.0 °F /  -16.7 °C 990.1in /  33524.8hPa SSE 3.4mph /  5.5km/h 5.6mph /  9km/h 93% 0.5in /  12.7mm WeatherDisplay:10.37 W/m2 RA
23:36 3.0 °F /  -16.1 °C 2.0 °F /  -16.7 °C 990.1in /  33524.8hPa Calm     93% 0.5in /  12.7mm WeatherDisplay:10.37 W/m2 RA
23:41 3.0 °F /  -16.1 °C 2.0 °F /  -16.7 °C 990.1in /  33524.8hPa Calm     93% 0.5in /  12.7mm WeatherDisplay:10.37 W/m2 RA
23:47 3.0 °F /  -16.1 °C 2.0 °F /  -16.7 °C 990.1in /  33524.8hPa Calm     93% 0.5in /  12.7mm WeatherDisplay:10.37 W/m2 RA
23:52 2.9 °F /  -16.2 °C 1.9 °F /  -16.7 °C 990.1in /  33524.8hPa Calm     93% 0.5in /  12.7mm WeatherDisplay:10.37 W/m2 RA
23:54 2.9 °F /  -16.2 °C 1.9 °F /  -16.7 °C 990.1in /  33524.8hPa Calm     93% 0.8in /  20.32mm WeatherDisplay:10.37 W/m2 RA
23:59 2.9 °F /  -16.2 °C 1.9 °F /  -16.7 °C 990.1in /  33524.8hPa Calm     93% 0.8in /  20.32mm WeatherDisplay:10.37 W/m2 RA
Tuulensuunkaari, Veikkola, Suomi
Compliments of Weather Underground - 2.75 mb